Time;durP1;ratioP1;P1;durP2;ratioP2;P2;SDS_P1;SDS_P2;PMS_P1;PMS_P2;Temp;Humidity;BMP_temperature;BMP_pressure;BME280_temperature;BME280_humidity;BME280_pressure;Samples;Min_cycle;Max_cycle;Signal;HPM_P1;HPM_P2
2024/02/26 00:01:47;;;;;;;7.20;6.50;;;;;;;3.38;100.00;96964.25;15305449;19;20041;-83
2024/02/26 00:07:14;;;;;;;6.85;6.15;;;;;;;3.34;100.00;96965.56;15309491;19;20018;-83
2024/02/26 00:12:39;;;;;;;6.53;5.93;;;;;;;3.26;100.00;96962.81;15304551;19;20011;-82
2024/02/26 00:18:03;;;;;;;6.97;6.28;;;;;;;3.14;100.00;96956.88;15301894;19;20015;-82
2024/02/26 00:23:36;;;;;;;6.45;5.80;;;;;;;3.03;100.00;96954.44;15297718;19;20435;-82
2024/02/26 00:29:00;;;;;;;6.57;5.60;;;;;;;2.92;100.00;96942.16;15301326;19;20006;-82
2024/02/26 00:34:31;;;;;;;8.20;5.93;;;;;;;2.86;100.00;96934.78;15041616;19;5002041;-82
2024/02/26 00:39:58;;;;;;;7.55;6.85;;;;;;;2.82;100.00;96942.25;15299506;19;20014;-83
2024/02/26 00:45:23;;;;;;;7.47;6.68;;;;;;;2.74;100.00;96929.69;15295869;19;20053;-84
2024/02/26 00:50:51;;;;;;;9.43;8.43;;;;;;;2.65;100.00;96917.25;15310415;19;20471;-83
2024/02/26 00:56:11;;;;;;;10.80;9.23;;;;;;;2.57;100.00;96906.53;15298679;19;20070;-82
2024/02/26 01:01:36;;;;;;;11.63;10.40;;;;;;;2.54;100.00;96898.84;15296652;19;20777;-82
2024/02/26 01:07:03;;;;;;;12.48;11.27;;;;;;;2.54;100.00;96902.38;15299783;19;20008;-83
2024/02/26 01:12:30;;;;;;;14.43;12.93;;;;;;;2.55;100.00;96892.56;15312743;19;20014;-82
2024/02/26 01:17:56;;;;;;;13.27;11.82;;;;;;;2.57;100.00;96886.13;15307370;19;20028;-84
2024/02/26 01:23:21;;;;;;;13.50;12.07;;;;;;;2.56;100.00;96894.22;15331603;19;20014;-82
2024/02/26 01:28:48;;;;;;;12.68;11.38;;;;;;;2.54;100.00;96898.84;15320652;19;20011;-83
2024/02/26 01:34:20;;;;;;;14.07;12.27;;;;;;;2.47;100.00;96907.44;15316040;19;20029;-84
2024/02/26 01:39:45;;;;;;;12.27;10.98;;;;;;;2.36;100.00;96912.09;15318173;19;20022;-82
2024/02/26 01:45:15;;;;;;;12.15;10.63;;;;;;;2.26;100.00;96909.50;15313881;19;20014;-82
2024/02/26 01:50:43;;;;;;;10.73;9.73;;;;;;;2.10;100.00;96900.31;15315290;19;20028;-82
2024/02/26 01:56:08;;;;;;;14.00;11.23;;;;;;;2.04;100.00;96902.72;15317686;19;20475;-84
2024/02/26 02:01:37;;;;;;;13.77;12.38;;;;;;;1.97;100.00;96905.13;15313401;19;20015;-85
2024/02/26 02:07:03;;;;;;;14.63;13.13;;;;;;;1.97;100.00;96908.63;15313499;19;20479;-84
2024/02/26 02:12:28;;;;;;;19.13;14.65;;;;;;;1.97;100.00;96911.28;15312008;19;20015;-85
2024/02/26 02:17:55;;;;;;;15.40;13.77;;;;;;;1.95;100.00;96917.69;15304667;19;20047;-85
2024/02/26 02:23:23;;;;;;;13.77;12.38;;;;;;;1.83;100.00;96917.88;15317343;19;20017;-83
2024/02/26 02:28:49;;;;;;;12.57;11.27;;;;;;;1.72;100.00;96923.34;15315786;19;20479;-83
2024/02/26 02:34:14;;;;;;;11.57;10.38;;;;;;;1.61;100.00;96926.16;15309337;19;20014;-82
2024/02/26 02:39:43;;;;;;;15.93;13.57;;;;;;;1.50;100.00;96919.19;15311172;19;20030;-82
2024/02/26 02:45:09;;;;;;;15.55;13.35;;;;;;;1.46;100.00;96918.66;15308536;19;20021;-89
2024/02/26 02:50:34;;;;;;;17.48;15.55;;;;;;;1.42;100.00;96925.22;15324904;19;20018;-82
2024/02/26 02:56:02;;;;;;;18.67;16.60;;;;;;;1.43;100.00;96924.22;15317234;19;20427;-82
2024/02/26 03:01:27;;;;;;;19.42;17.33;;;;;;;1.41;100.00;96920.88;15314272;19;20015;-82
2024/02/26 03:06:52;;;;;;;17.75;15.85;;;;;;;1.36;100.00;96923.09;15310221;19;20752;-83
2024/02/26 03:12:23;;;;;;;19.83;16.48;;;;;;;1.34;100.00;96919.78;15318611;19;20022;-85
2024/02/26 03:17:48;;;;;;;17.05;15.25;;;;;;;1.33;100.00;96924.22;15317502;19;20019;-84
2024/02/26 03:23:15;;;;;;;17.05;14.73;;;;;;;1.30;100.00;96915.72;15309548;19;20022;-83
2024/02/26 03:28:42;;;;;;;16.98;15.18;;;;;;;1.23;100.00;96926.88;15313239;19;20019;-83
2024/02/26 03:34:07;;;;;;;16.20;14.50;;;;;;;1.15;100.00;96913.47;15309822;19;20074;-83
2024/02/26 03:39:32;;;;;;;16.80;14.25;;;;;;;1.10;100.00;96923.69;15312067;19;20034;-85
2024/02/26 03:44:59;;;;;;;15.25;12.68;;;;;;;1.01;100.00;96911.22;15045452;19;5001018;-83
2024/02/26 03:50:24;;;;;;;14.43;12.40;;;;;;;0.86;100.00;96921.41;15308467;19;20033;-82
2024/02/26 03:55:49;;;;;;;14.48;12.05;;;;;;;0.72;100.00;96930.59;15296134;19;20050;-83
2024/02/26 04:01:16;;;;;;;13.80;12.38;;;;;;;0.61;100.00;96935.03;15301203;19;20098;-82
2024/02/26 04:06:41;;;;;;;15.90;13.07;;;;;;;0.51;100.00;96935.97;15297706;19;20033;-82
2024/02/26 04:12:07;;;;;;;18.05;14.55;;;;;;;0.41;100.00;96936.78;15291667;19;20086;-83
2024/02/26 04:17:34;;;;;;;16.30;14.60;;;;;;;0.36;100.00;96935.50;15298277;19;20006;-85
2024/02/26 04:23:00;;;;;;;18.40;16.30;;;;;;;0.29;100.00;96933.38;15291280;19;20029;-83
2024/02/26 04:28:25;;;;;;;20.08;16.98;;;;;;;0.26;100.00;96935.47;15291904;19;20029;-84
2024/02/26 04:33:52;;;;;;;19.52;16.35;;;;;;;0.25;100.00;96939.09;15289748;19;20010;-83
2024/02/26 04:39:17;;;;;;;19.58;17.30;;;;;;;0.28;100.00;96949.41;15293371;19;20039;-84
2024/02/26 04:44:42;;;;;;;18.63;16.60;;;;;;;0.30;100.00;96948.31;15287912;19;20010;-83
2024/02/26 04:50:09;;;;;;;21.17;17.88;;;;;;;0.30;100.00;96952.78;15291051;19;20021;-83
2024/02/26 04:55:34;;;;;;;24.05;20.98;;;;;;;0.32;100.00;96950.00;15289982;19;20019;-83
2024/02/26 05:00:58;;;;;;;29.75;24.77;;;;;;;0.41;100.00;96949.22;15293296;19;20094;-83
2024/02/26 05:06:27;;;;;;;31.45;25.35;;;;;;;0.53;100.00;96955.22;15290559;19;20015;-83
2024/02/26 05:11:51;;;;;;;28.17;23.35;;;;;;;0.60;100.00;96943.09;15292225;19;20019;-84
2024/02/26 05:17:16;;;;;;;27.65;21.83;;;;;;;0.61;100.00;96948.28;15294533;19;20070;-83
2024/02/26 05:22:47;;;;;;;25.85;22.33;;;;;;;0.63;100.00;96932.25;15288542;19;20530;-83
2024/02/26 05:28:12;;;;;;;23.65;20.85;;;;;;;0.64;100.00;96939.22;15282827;19;20691;-84
2024/02/26 05:33:43;;;;;;;25.67;21.50;;;;;;;0.68;100.00;96937.13;15280612;19;20411;-85
2024/02/26 05:39:11;;;;;;;27.98;23.25;;;;;;;0.74;100.00;96948.03;15279273;19;20019;-56
2024/02/26 05:44:37;;;;;;;27.70;23.10;;;;;;;0.79;100.00;96936.19;15278198;19;20378;-55
2024/02/26 05:50:03;;;;;;;24.77;21.17;;;;;;;0.83;100.00;96946.38;15277889;19;20011;-53
2024/02/26 05:55:30;;;;;;;24.13;20.48;;;;;;;0.86;100.00;96948.78;15297127;19;20082;-51
2024/02/26 06:00:55;;;;;;;22.67;20.20;;;;;;;0.89;100.00;96953.78;15297054;19;20022;-56
2024/02/26 06:06:19;;;;;;;21.05;18.75;;;;;;;0.94;100.00;96960.50;15296292;19;20024;-53
2024/02/26 06:11:46;;;;;;;21.30;18.25;;;;;;;0.95;100.00;96963.00;15294134;19;20424;-55
2024/02/26 06:17:11;;;;;;;21.48;18.98;;;;;;;0.94;100.00;96987.00;15304281;19;20376;-54
2024/02/26 06:22:36;;;;;;;20.95;18.10;;;;;;;0.96;100.00;96993.03;15290855;19;20479;-54
2024/02/26 06:28:03;;;;;;;20.17;17.95;;;;;;;0.96;100.00;96995.66;15304388;19;20548;-56
2024/02/26 06:33:28;;;;;;;20.70;18.10;;;;;;;0.98;100.00;96999.03;15291847;19;20104;-55
2024/02/26 06:38:53;;;;;;;20.60;18.40;;;;;;;0.97;100.00;97003.47;15289993;19;20019;-52
2024/02/26 06:44:21;;;;;;;22.17;19.65;;;;;;;0.98;100.00;97005.16;15292159;19;20037;-56
2024/02/26 06:49:47;;;;;;;22.35;19.67;;;;;;;1.03;100.00;97008.25;15303192;19;20022;-52
2024/02/26 06:55:13;;;;;;;22.02;19.50;;;;;;;1.14;100.00;97007.28;15287624;19;20034;-56
2024/02/26 07:00:40;;;;;;;23.45;20.88;;;;;;;1.27;100.00;97009.69;15292534;19;20018;-57
2024/02/26 07:06:05;;;;;;;25.45;21.92;;;;;;;1.44;100.00;97016.13;15291663;19;20010;-56
2024/02/26 07:11:30;;;;;;;24.35;21.73;;;;;;;1.60;100.00;97020.03;15291588;19;20023;-56
2024/02/26 07:16:58;;;;;;;25.17;21.65;;;;;;;1.73;100.00;97017.13;15297727;19;20050;-53
2024/02/26 07:22:22;;;;;;;24.23;20.63;;;;;;;1.85;100.00;97019.47;15286358;19;20367;-57
2024/02/26 07:27:47;;;;;;;19.65;17.55;;;;;;;1.97;100.00;97019.31;15292383;19;20018;-57
2024/02/26 07:33:14;;;;;;;18.35;16.45;;;;;;;1.98;100.00;97018.34;15280635;19;20014;-55
2024/02/26 07:38:45;;;;;;;14.35;12.85;;;;;;;1.98;100.00;97015.69;15279350;19;20019;-58
2024/02/26 07:44:10;;;;;;;14.68;13.18;;;;;;;1.95;100.00;97018.63;15279545;19;20011;-52
2024/02/26 07:49:37;;;;;;;14.95;13.20;;;;;;;1.74;100.00;97030.25;15298072;19;20014;-57
2024/02/26 07:55:02;;;;;;;15.55;13.18;;;;;;;1.66;100.00;97040.72;15287932;19;20014;-53
2024/02/26 08:00:27;;;;;;;15.98;14.38;;;;;;;1.64;100.00;97046.19;15283301;19;20082;-55
2024/02/26 08:05:55;;;;;;;17.20;15.32;;;;;;;1.52;100.00;97057.91;15291423;19;20051;-56
2024/02/26 08:11:19;;;;;;;15.10;13.38;;;;;;;1.49;100.00;97066.97;15287452;19;20010;-54
2024/02/26 08:16:44;;;;;;;16.30;13.93;;;;;;;1.53;100.00;97068.38;15293498;19;20077;-55
2024/02/26 08:22:15;;;;;;;16.17;13.85;;;;;;;1.68;100.00;97079.41;15286071;19;20028;-53
2024/02/26 08:27:41;;;;;;;17.83;15.93;;;;;;;1.93;100.00;97071.06;15295892;19;20021;-53
2024/02/26 08:33:05;;;;;;;19.23;17.23;;;;;;;2.09;100.00;97079.28;15286717;19;20018;-51
2024/02/26 08:38:34;;;;;;;17.52;15.68;;;;;;;2.29;100.00;97069.47;15285272;19;20025;-55
2024/02/26 08:43:58;;;;;;;17.30;15.38;;;;;;;2.54;100.00;97075.16;15284237;19;20029;-55
2024/02/26 08:49:23;;;;;;;16.30;14.55;;;;;;;2.74;100.00;97075.94;15290610;19;20010;-54
2024/02/26 08:54:50;;;;;;;16.60;14.90;;;;;;;2.93;100.00;97079.50;15282650;19;20014;-56
2024/02/26 09:00:17;;;;;;;16.98;15.20;;;;;;;3.07;100.00;97076.38;15283508;19;20034;-52
2024/02/26 09:05:41;;;;;;;15.32;13.73;;;;;;;3.16;100.00;97077.31;15282098;19;20023;-55
2024/02/26 09:11:10;;;;;;;15.98;14.15;;;;;;;3.24;100.00;97066.75;15277516;19;20651;-60
2024/02/26 09:16:34;;;;;;;15.82;14.23;;;;;;;3.41;100.00;97068.75;15283118;19;20478;-52
2024/02/26 09:21:59;;;;;;;17.15;15.05;;;;;;;3.62;100.00;97063.16;15281568;19;20014;-52
2024/02/26 09:27:26;;;;;;;17.02;15.23;;;;;;;3.82;100.00;97069.19;15287500;19;20478;-53
2024/02/26 09:32:51;;;;;;;17.02;15.23;;;;;;;4.05;100.00;97068.72;15293674;19;20384;-54
2024/02/26 09:38:15;;;;;;;16.55;14.80;;;;;;;4.24;100.00;97065.03;15296057;19;20018;-52
2024/02/26 09:43:46;;;;;;;16.38;14.77;;;;;;;4.48;100.00;97075.88;15294090;19;20078;-55
2024/02/26 09:49:18;;;;;;;16.58;13.35;;;;;;;4.75;100.00;97083.91;15279509;19;20082;-48
2024/02/26 09:54:44;;;;;;;14.45;12.93;;;;;;;4.99;100.00;97063.69;15299828;19;20025;-48
2024/02/26 10:00:13;;;;;;;13.52;12.13;;;;;;;5.23;100.00;97077.09;15297637;19;20622;-49
2024/02/26 10:05:40;;;;;;;14.75;13.25;;;;;;;5.43;100.00;97076.88;15295343;19;20018;-49
2024/02/26 10:11:05;;;;;;;14.13;12.55;;;;;;;5.54;100.00;97086.41;15299754;19;20093;-51
2024/02/26 10:16:36;;;;;;;14.07;12.48;;;;;;;5.69;100.00;97078.63;15298409;19;20020;-48
2024/02/26 10:22:06;;;;;;;13.23;11.93;;;;;;;5.78;100.00;97080.31;15295315;19;20130;-48
2024/02/26 10:27:31;;;;;;;12.70;11.40;;;;;;;5.95;100.00;97082.97;15297916;19;20362;-50
2024/02/26 10:32:59;;;;;;;12.38;10.95;;;;;;;6.02;100.00;97086.72;15294700;19;20024;-49
2024/02/26 10:38:25;;;;;;;12.65;11.30;;;;;;;6.09;100.00;97082.38;15298461;19;20422;-50
2024/02/26 10:43:52;;;;;;;13.65;12.25;;;;;;;6.19;100.00;97082.22;15297794;19;20022;-47
2024/02/26 10:49:26;;;;;;;14.30;11.43;;;;;;;6.45;100.00;97081.22;15296683;19;20371;-47
2024/02/26 10:54:53;;;;;;;9.70;8.70;;;;;;;6.70;100.00;97060.59;15296212;19;20018;-47
2024/02/26 11:00:24;;;;;;;12.82;8.80;;;;;;;6.92;100.00;97064.41;15292504;19;20367;-48
2024/02/26 11:05:52;;;;;;;12.90;8.57;;;;;;;7.13;100.00;97072.84;15294735;19;20724;-47
2024/02/26 11:11:17;;;;;;;9.93;7.95;;;;;;;7.27;100.00;97085.53;15290066;19;20592;-49
2024/02/26 11:16:42;;;;;;;8.85;7.95;;;;;;;7.44;100.00;97086.31;15295404;19;20535;-48
2024/02/26 11:22:10;;;;;;;11.05;8.00;;;;;;;7.57;100.00;97093.78;15291642;19;20015;-48
2024/02/26 11:27:46;;;;;;;11.10;8.50;;;;;;;7.69;100.00;97084.34;15294122;19;20067;-48
2024/02/26 11:33:12;;;;;;;9.68;8.65;;;;;;;7.77;100.00;97090.66;15289816;19;20522;-49
2024/02/26 11:38:40;;;;;;;9.55;8.57;;;;;;;7.70;100.00;97080.63;15291997;19;20022;-48
2024/02/26 11:44:08;;;;;;;9.93;8.70;;;;;;;7.69;100.00;97073.63;15284755;19;20010;-48
2024/02/26 11:49:40;;;;;;;9.88;8.60;;;;;;;7.69;100.00;97079.00;15287584;19;20359;-48
2024/02/26 11:55:09;;;;;;;9.40;8.32;;;;;;;7.73;100.00;97079.47;15291951;19;20014;-48
2024/02/26 12:00:34;;;;;;;9.85;8.40;;;;;;;7.75;100.00;97087.31;15288656;19;20511;-53
2024/02/26 12:05:59;;;;;;;11.07;8.95;;;;;;;7.80;100.00;97084.97;15289391;19;20809;-48
2024/02/26 12:11:26;;;;;;;9.48;8.50;;;;;;;7.81;100.00;97106.22;15288061;19;20197;-48
2024/02/26 12:16:54;;;;;;;8.73;7.82;;;;;;;7.99;100.00;97095.22;15286269;19;20741;-52
2024/02/26 12:22:22;;;;;;;9.20;7.55;;;;;;;8.23;100.00;97109.47;15285540;19;20035;-48
2024/02/26 12:27:50;;;;;;;8.50;7.55;;;;;;;8.42;100.00;97096.56;15290408;19;20014;-48
2024/02/26 12:33:16;;;;;;;9.05;8.10;;;;;;;8.46;100.00;97100.56;15284882;19;20023;-49
2024/02/26 12:38:41;;;;;;;10.65;7.68;;;;;;;8.45;100.00;97105.13;15293058;19;20029;-48
2024/02/26 12:44:09;;;;;;;9.88;7.40;;;;;;;8.59;100.00;97110.72;15285814;19;20351;-50
2024/02/26 12:49:40;;;;;;;9.38;7.28;;;;;;;8.73;100.00;97099.19;15285789;19;20019;-49
2024/02/26 12:55:07;;;;;;;7.80;6.80;;;;;;;8.84;100.00;97097.06;15286966;19;20094;-49
2024/02/26 13:00:35;;;;;;;11.05;7.22;;;;;;;8.99;100.00;97106.00;15283778;19;20597;-49
2024/02/26 13:06:01;;;;;;;8.27;6.95;;;;;;;9.14;100.00;97114.06;15285282;19;20376;-48
2024/02/26 13:11:25;;;;;;;8.30;6.53;;;;;;;8.97;100.00;97123.31;15284771;19;20014;-47
2024/02/26 13:17:00;;;;;;;8.55;6.70;;;;;;;8.86;100.00;97121.91;15288563;19;20515;-48
2024/02/26 13:22:25;;;;;;;7.10;6.38;;;;;;;8.99;100.00;97127.47;15284332;19;20023;-48
2024/02/26 13:27:50;;;;;;;6.78;5.90;;;;;;;9.13;100.00;97149.19;15288176;19;20039;-50
2024/02/26 13:33:21;;;;;;;9.75;5.55;;;;;;;9.16;100.00;97159.56;15283454;19;20026;-49
2024/02/26 13:38:54;;;;;;;7.20;5.63;;;;;;;9.16;100.00;97170.31;15289292;19;20018;-51
2024/02/26 13:44:18;;;;;;;8.93;5.63;;;;;;;9.21;100.00;97170.59;15282674;19;20040;-48
2024/02/26 13:49:52;;;;;;;6.55;5.55;;;;;;;9.18;100.00;97169.09;15285654;19;20021;-48
2024/02/26 13:55:17;;;;;;;6.72;5.60;;;;;;;9.14;100.00;97175.84;15282873;19;20025;-50
2024/02/26 14:00:41;;;;;;;6.95;6.15;;;;;;;9.12;100.00;97175.19;15279996;19;20058;-51
2024/02/26 14:06:09;;;;;;;9.25;6.00;;;;;;;9.10;100.00;97175.38;15283365;19;20014;-49
2024/02/26 14:11:34;;;;;;;6.80;5.70;;;;;;;9.06;100.00;97178.63;15281481;19;20017;-48
2024/02/26 14:16:59;;;;;;;6.28;5.13;;;;;;;9.03;100.00;97179.84;15292353;19;20050;-49
2024/02/26 14:22:26;;;;;;;8.65;5.40;;;;;;;9.03;100.00;97184.34;15299748;19;20041;-48
2024/02/26 14:27:51;;;;;;;7.10;5.50;;;;;;;8.94;100.00;97184.44;15292349;19;20018;-48
2024/02/26 14:33:15;;;;;;;6.07;5.30;;;;;;;8.87;100.00;97188.88;15295104;19;20018;-48
2024/02/26 14:38:43;;;;;;;6.40;5.80;;;;;;;8.84;100.00;97178.50;15296650;19;20836;-48
2024/02/26 14:44:07;;;;;;;9.38;6.00;;;;;;;8.89;100.00;97170.72;15299073;19;20015;-49
2024/02/26 14:49:32;;;;;;;6.57;5.47;;;;;;;9.07;100.00;97172.25;15294700;19;20025;-48
2024/02/26 14:54:59;;;;;;;8.43;5.13;;;;;;;9.20;100.00;97177.81;15298918;19;20086;-49
2024/02/26 15:00:24;;;;;;;7.85;5.13;;;;;;;9.34;100.00;97194.16;15292968;19;20468;-48
2024/02/26 15:05:48;;;;;;;6.50;5.25;;;;;;;9.48;100.00;97204.06;15294004;19;20475;-49
2024/02/26 15:11:16;;;;;;;7.32;5.40;;;;;;;9.50;100.00;97210.09;15291638;19;20010;-49
2024/02/26 15:16:40;;;;;;;7.85;5.35;;;;;;;9.50;100.00;97220.03;15296340;19;20531;-52
2024/02/26 15:22:05;;;;;;;7.50;5.13;;;;;;;9.53;100.00;97214.25;15293781;19;20359;-53
2024/02/26 15:27:27;;;;;;;6.57;5.25;;;;;;;9.56;100.00;97220.13;15292540;19;20022;-50
2024/02/26 15:32:51;;;;;;;7.68;4.80;;;;;;;9.59;100.00;97215.38;15291630;19;20490;-51
2024/02/26 15:38:16;;;;;;;5.80;4.82;;;;;;;9.60;100.00;97220.59;15291870;19;20017;-48
2024/02/26 15:43:43;;;;;;;6.82;4.60;;;;;;;9.52;100.00;97234.94;15291608;19;20010;-49
2024/02/26 15:49:14;;;;;;;5.47;4.72;;;;;;;9.44;100.00;97253.00;15290138;19;20078;-49
2024/02/26 15:54:41;;;;;;;6.07;4.90;;;;;;;9.32;100.00;97248.06;15289460;19;20026;-51
2024/02/26 16:00:10;;;;;;;7.95;5.35;;;;;;;9.24;100.00;97253.53;15030397;19;5001832;-49
2024/02/26 16:05:35;;;;;;;8.80;5.05;;;;;;;9.18;100.00;97265.84;15288225;19;20077;-50
2024/02/26 16:11:00;;;;;;;7.53;4.90;;;;;;;9.09;100.00;97267.75;15293937;19;20023;-48
2024/02/26 16:16:31;;;;;;;6.32;4.95;;;;;;;9.00;100.00;97267.97;15291133;19;20021;-52
2024/02/26 16:21:56;;;;;;;5.63;5.03;;;;;;;8.91;100.00;97286.84;15287162;19;20035;-49
2024/02/26 16:27:21;;;;;;;7.57;4.90;;;;;;;8.82;100.00;97279.06;15294553;19;20018;-48
2024/02/26 16:32:49;;;;;;;6.57;4.68;;;;;;;8.77;100.00;97282.25;15288978;19;20022;-52
2024/02/26 16:38:14;;;;;;;6.40;4.90;;;;;;;8.69;100.00;97282.31;15284085;19;20018;-48
2024/02/26 16:43:38;;;;;;;6.85;5.07;;;;;;;8.61;100.00;97288.56;15291447;19;20029;-50
2024/02/26 16:49:12;;;;;;;8.43;6.10;;;;;;;8.53;100.00;97286.75;15288482;19;20346;-49
2024/02/26 16:54:37;;;;;;;8.25;4.93;;;;;;;8.45;100.00;97297.50;15292611;19;20105;-51
2024/02/26 17:00:03;;;;;;;7.13;4.72;;;;;;;8.37;100.00;97330.59;15291497;19;20422;-51
2024/02/26 17:05:31;;;;;;;6.45;4.50;;;;;;;8.31;100.00;97344.72;15290699;19;20026;-51
2024/02/26 17:10:56;;;;;;;7.05;4.90;;;;;;;8.28;100.00;97350.41;15291002;19;20558;-53
2024/02/26 17:16:21;;;;;;;5.40;4.25;;;;;;;8.25;100.00;97348.94;15031946;19;5001659;-48
2024/02/26 17:21:48;;;;;;;6.53;4.50;;;;;;;8.21;100.00;97355.63;15290938;19;20085;-50
2024/02/26 17:27:13;;;;;;;5.85;4.32;;;;;;;8.20;100.00;97362.00;15285848;19;20094;-51
2024/02/26 17:32:37;;;;;;;6.97;4.45;;;;;;;8.14;100.00;97371.59;15287275;19;20013;-53
2024/02/26 17:38:08;;;;;;;5.75;4.05;;;;;;;8.10;100.00;97375.63;15280861;19;20080;-49
2024/02/26 17:43:32;;;;;;;6.32;4.43;;;;;;;8.07;100.00;97380.47;15289555;19;20092;-51
2024/02/26 17:49:03;;;;;;;6.15;3.88;;;;;;;8.04;100.00;97395.06;15264345;19;20031;-55
2024/02/26 17:54:31;;;;;;;4.43;3.67;;;;;;;8.02;100.00;97392.59;15303412;19;20490;-54
2024/02/26 17:59:55;;;;;;;5.43;3.70;;;;;;;7.99;100.00;97387.56;15303715;19;20023;-49
2024/02/26 18:05:20;;;;;;;8.52;3.45;;;;;;;7.96;100.00;97395.94;15302705;19;20435;-48
2024/02/26 18:10:48;;;;;;;6.00;3.83;;;;;;;7.92;100.00;97405.34;15295245;19;20892;-48
2024/02/26 18:16:14;;;;;;;4.88;3.60;;;;;;;7.89;100.00;97420.91;15301464;19;20038;-48
2024/02/26 18:21:38;;;;;;;4.22;3.47;;;;;;;7.85;100.00;97420.41;15302813;19;20086;-48
2024/02/26 18:27:07;;;;;;;5.40;4.05;;;;;;;7.78;100.00;97419.41;15300545;19;20007;-48
2024/02/26 18:32:30;;;;;;;8.80;5.75;;;;;;;7.75;100.00;97430.47;15302154;19;20017;-49
2024/02/26 18:37:56;;;;;;;6.35;4.20;;;;;;;7.69;100.00;97448.91;15274971;19;20411;-50
2024/02/26 18:43:23;;;;;;;7.18;4.53;;;;;;;7.65;100.00;97460.97;15294800;19;20089;-49
2024/02/26 18:48:49;;;;;;;6.85;5.00;;;;;;;7.60;100.00;97465.97;15295499;19;21325;-50
2024/02/26 18:54:15;;;;;;;8.90;5.10;;;;;;;7.55;100.00;97471.84;15301067;19;20021;-49
2024/02/26 18:59:43;;;;;;;7.57;5.18;;;;;;;7.48;100.00;97472.66;15293089;19;20078;-48
2024/02/26 19:05:07;;;;;;;6.60;5.28;;;;;;;7.42;100.00;97479.53;15298899;19;20006;-48
2024/02/26 19:10:33;;;;;;;9.07;5.70;;;;;;;7.39;100.00;97493.28;15040870;19;5001697;-49
2024/02/26 19:16:00;;;;;;;8.20;6.45;;;;;;;7.36;100.00;97497.09;15287529;19;20018;-49
2024/02/26 19:21:25;;;;;;;7.72;6.30;;;;;;;7.34;100.00;97504.47;15288907;19;20010;-48
2024/02/26 19:26:49;;;;;;;8.50;6.50;;;;;;;7.28;100.00;97504.28;15290402;19;20082;-52
2024/02/26 19:32:17;;;;;;;9.48;6.45;;;;;;;7.25;100.00;97525.03;15296980;19;20018;-50
2024/02/26 19:37:43;;;;;;;9.02;6.80;;;;;;;7.26;100.00;97531.22;15294927;19;20015;-47
2024/02/26 19:43:07;;;;;;;8.75;6.80;;;;;;;7.25;100.00;97534.91;15297785;19;20015;-50
2024/02/26 19:48:41;;;;;;;8.25;6.70;;;;;;;7.22;100.00;97544.13;15288690;19;20024;-48
2024/02/26 19:54:06;;;;;;;9.77;7.57;;;;;;;7.21;100.00;97557.69;15291673;19;20435;-47
2024/02/26 19:59:31;;;;;;;12.00;7.32;;;;;;;7.17;100.00;97564.34;15286191;19;20050;-48
2024/02/26 20:04:58;;;;;;;10.30;7.20;;;;;;;7.13;100.00;97561.16;15286823;19;20415;-47
2024/02/26 20:10:23;;;;;;;9.38;7.47;;;;;;;7.07;100.00;97559.09;15278528;19;20029;-51
2024/02/26 20:15:48;;;;;;;9.57;7.15;;;;;;;7.01;100.00;97570.47;15286236;19;20405;-50
2024/02/26 20:21:15;;;;;;;7.82;6.90;;;;;;;6.92;100.00;97589.19;15286102;19;20021;-47
2024/02/26 20:26:43;;;;;;;7.18;6.47;;;;;;;6.81;100.00;97588.59;15286730;19;20015;-53
2024/02/26 20:32:09;;;;;;;7.63;6.43;;;;;;;6.73;100.00;97590.22;15289912;19;20025;-47
2024/02/26 20:37:36;;;;;;;9.02;6.18;;;;;;;6.67;100.00;97587.34;15290754;19;20018;-49
2024/02/26 20:43:01;;;;;;;8.80;5.93;;;;;;;6.60;100.00;97601.34;15285206;19;20021;-47
2024/02/26 20:48:26;;;;;;;7.85;5.70;;;;;;;6.58;100.00;97602.50;15291755;19;20411;-48
2024/02/26 20:53:56;;;;;;;8.80;5.72;;;;;;;6.54;100.00;97609.16;15284729;19;20359;-48
2024/02/26 20:59:21;;;;;;;6.13;5.53;;;;;;;6.48;100.00;97621.31;15291935;19;20020;-47
2024/02/26 21:04:47;;;;;;;8.13;5.82;;;;;;;6.46;100.00;97628.69;15287102;19;20025;-47
2024/02/26 21:10:15;;;;;;;7.60;5.70;;;;;;;6.43;100.00;97632.47;15286995;19;20018;-48
2024/02/26 21:15:40;;;;;;;6.95;6.00;;;;;;;6.44;100.00;97646.72;15282753;19;20024;-49
2024/02/26 21:21:06;;;;;;;7.25;5.45;;;;;;;6.45;100.00;97659.94;15290650;19;20356;-49
2024/02/26 21:26:34;;;;;;;7.38;5.80;;;;;;;6.45;100.00;97669.81;15293669;19;20015;-48
2024/02/26 21:31:59;;;;;;;9.32;5.82;;;;;;;6.45;100.00;97681.34;15304560;19;20025;-51
2024/02/26 21:37:24;;;;;;;8.20;6.28;;;;;;;6.43;100.00;97688.66;15300230;19;20015;-50
2024/02/26 21:42:51;;;;;;;6.85;5.75;;;;;;;6.42;100.00;97694.19;15300938;19;20015;-49
2024/02/26 21:48:17;;;;;;;8.27;5.18;;;;;;;6.52;100.00;97699.47;15296028;19;20459;-49
2024/02/26 21:53:41;;;;;;;6.00;5.20;;;;;;;6.88;100.00;97696.75;15289276;19;20017;-48
2024/02/26 21:59:10;;;;;;;7.05;5.10;;;;;;;7.03;100.00;97711.25;15293228;19;20022;-49
2024/02/26 22:04:34;;;;;;;7.13;5.13;;;;;;;7.13;100.00;97715.66;15290376;19;20024;-51
2024/02/26 22:09:59;;;;;;;6.90;5.30;;;;;;;7.22;100.00;97726.28;15245072;19;20396;-48
2024/02/26 22:15:26;;;;;;;7.28;5.72;;;;;;;7.29;100.00;97721.13;15294464;19;20015;-46
2024/02/26 22:20:52;;;;;;;6.22;5.32;;;;;;;7.38;100.00;97720.19;15300682;19;20037;-47
2024/02/26 22:26:19;;;;;;;6.65;5.65;;;;;;;7.44;100.00;97724.06;15295725;19;20042;-49
2024/02/26 22:31:49;;;;;;;7.32;5.80;;;;;;;7.38;100.00;97730.06;15291598;19;20029;-49
2024/02/26 22:37:15;;;;;;;8.63;6.40;;;;;;;7.27;100.00;97736.53;15297824;19;20077;-48
2024/02/26 22:42:40;;;;;;;8.70;6.55;;;;;;;7.27;100.00;97741.88;15294113;19;20017;-47
2024/02/26 22:48:14;;;;;;;8.75;7.32;;;;;;;7.19;100.00;97757.91;15297207;19;20026;-48
2024/02/26 22:53:40;;;;;;;8.68;7.63;;;;;;;7.21;100.00;97761.28;15293304;19;20041;-49
2024/02/26 22:59:05;;;;;;;9.40;7.70;;;;;;;7.22;100.00;97768.31;15298089;19;20078;-50
2024/02/26 23:04:33;;;;;;;10.23;7.72;;;;;;;7.29;100.00;97764.00;15297580;19;20082;-49
2024/02/26 23:09:58;;;;;;;9.27;7.65;;;;;;;7.30;100.00;97772.88;15289470;19;20038;-48
2024/02/26 23:15:31;;;;;;;8.63;7.45;;;;;;;7.29;100.00;97777.41;15294188;19;20109;-47
2024/02/26 23:20:59;;;;;;;9.02;7.95;;;;;;;7.14;100.00;97784.31;15298684;19;20018;-48
2024/02/26 23:26:25;;;;;;;9.82;8.38;;;;;;;7.13;100.00;97791.50;15294117;19;20070;-49
2024/02/26 23:31:49;;;;;;;10.40;8.70;;;;;;;7.05;100.00;97792.28;15290725;19;20383;-47
2024/02/26 23:37:17;;;;;;;8.80;7.90;;;;;;;7.01;100.00;97798.94;15297275;19;20400;-49
2024/02/26 23:42:41;;;;;;;9.25;8.27;;;;;;;7.00;100.00;97802.59;15289307;19;20014;-50
2024/02/26 23:48:14;;;;;;;9.63;8.63;;;;;;;7.00;100.00;97805.28;15031967;19;5002499;-51
2024/02/26 23:53:42;;;;;;;11.25;9.30;;;;;;;7.06;100.00;97814.53;15290498;19;20011;-48
2024/02/26 23:59:07;;;;;;;10.75;8.68;;;;;;;7.03;100.00;97814.88;15294135;19;20018;-48
